Time;durP1;ratioP1;P1;durP2;ratioP2;P2;SDS_P1;SDS_P2;PMS_P1;PMS_P2;Temp;Humidity;BMP_temperature;BMP_pressure;BME280_temperature;BME280_humidity;BME280_pressure;Samples;Min_cycle;Max_cycle;Signal;HPM_P1;HPM_P2
2021/03/22 00:00:48;;;;;;;39.85;21.33;;;128.20;1740.80;;;;;;4999862;28;20022;-78
2021/03/22 00:03:16;;;;;;;33.35;18.23;;;128.30;1715.20;;;;;;4997709;28;20050;-78
2021/03/22 00:05:43;;;;;;;34.17;17.58;;;128.10;1689.60;;;;;;4996477;28;20049;-78
2021/03/22 00:08:09;;;;;;;34.30;17.02;;;103.30;1689.60;;;;;;4995450;28;20035;-78
2021/03/22 00:10:37;;;;;;;31.42;18.00;;;103.20;1664.00;;;;;;5000666;28;20042;-78
2021/03/22 00:13:04;;;;;;;29.45;15.63;;;103.20;1638.40;;;;;;4995316;28;20022;-78
2021/03/22 00:15:32;;;;;;;28.67;17.35;;;103.20;1638.40;;;;;;4997340;28;20066;-78
2021/03/22 00:17:59;;;;;;;26.70;15.50;;;103.20;1612.80;;;;;;4993591;28;20038;-78
2021/03/22 00:20:26;;;;;;;35.50;17.35;;;103.30;1612.80;;;;;;4993734;28;20077;-78
2021/03/22 00:22:52;;;;;;;31.08;16.27;;;128.00;1638.40;;;;;;4994344;28;20031;-78
2021/03/22 00:25:18;;;;;;;31.75;16.08;;;103.30;1612.80;;;;;;4993147;28;20041;-79
2021/03/22 00:27:44;;;;;;;35.33;17.23;;;103.30;1638.40;;;;;;4992695;28;20031;-78
2021/03/22 00:30:17;;;;;;;35.55;17.33;;;103.30;1612.80;;;;;;4997214;28;20030;-78
2021/03/22 00:32:43;;;;;;;31.10;17.13;;;103.20;1638.40;;;;;;4996160;28;20034;-78
2021/03/22 00:35:09;;;;;;;33.10;17.08;;;103.00;1664.00;;;;;;4995942;28;20149;-79
2021/03/22 00:37:34;;;;;;;;;;;102.80;1689.60;;;;;;4991787;28;20030;-78
2021/03/22 00:40:00;;;;;;;30.80;16.65;;;102.90;1664.00;;;;;;4975021;28;19906;-78
2021/03/22 00:42:26;;;;;;;;;;;102.80;1689.60;;;;;;4977057;28;20031;-78
2021/03/22 00:44:51;;;;;;;30.52;15.23;;;102.70;1715.20;;;;;;4981525;28;19965;-78
2021/03/22 00:47:17;;;;;;;;;;;102.70;1689.60;;;;;;4999359;28;20081;-79
2021/03/22 00:49:43;;;;;;;28.08;14.35;;;102.80;1664.00;;;;;;4998154;28;19921;-78
2021/03/22 00:52:10;;;;;;;;;;;102.60;1689.60;;;;;;4996668;28;20057;-79
2021/03/22 00:54:38;;;;;;;31.95;15.63;;;102.80;1689.60;;;;;;4979664;28;19986;-79
2021/03/22 00:57:05;;;;;;;25.20;14.73;;;102.70;1715.20;;;;;;4994352;28;20026;-78
2021/03/22 00:59:30;;;;;;;33.58;15.98;;;102.60;1715.20;;;;;;4977388;28;20030;-78
2021/03/22 01:01:56;;;;;;;29.95;14.77;;;102.50;1715.20;;;;;;4995219;28;20356;-78
2021/03/22 01:04:22;;;;;;;26.42;13.05;;;102.50;1715.20;;;;;;4978343;28;20034;-78
2021/03/22 01:06:47;;;;;;;;;;;102.50;1740.80;;;;;;4977006;28;20049;-79
2021/03/22 01:09:13;;;;;;;24.42;13.15;;;102.60;1715.20;;;;;;4978234;28;19912;-78
2021/03/22 01:11:38;;;;;;;;;;;102.70;1715.20;;;;;;4995583;28;20026;-78
2021/03/22 01:14:04;;;;;;;25.50;13.23;;;102.80;1715.20;;;;;;4979193;28;19898;-78
2021/03/22 01:16:37;;;;;;;;;;;102.70;1715.20;;;;;;4979994;28;20065;-78
2021/03/22 01:19:17;;;;;;;26.40;12.95;;;102.50;1715.20;;;;;;4977835;28;20382;-78
2021/03/22 01:21:55;;;;;;;31.90;13.68;;;102.40;1740.80;;;;;;4980241;28;20038;-78
2021/03/22 01:24:23;;;;;;;28.83;15.20;;;102.50;1740.80;;;;;;4982187;28;20019;-77
2021/03/22 01:26:52;;;;;;;25.67;13.75;;;102.60;1715.20;;;;;;4982110;28;20030;-78
2021/03/22 01:29:34;;;;;;;25.38;13.48;;;102.40;1740.80;;;;;;5000313;28;20018;-78
2021/03/22 01:32:01;;;;;;;27.65;14.15;;;77.60;1740.80;;;;;;4994771;28;20026;-80
2021/03/22 01:34:28;;;;;;;27.83;13.75;;;77.50;1766.40;;;;;;4980441;28;20424;-78
2021/03/22 01:36:55;;;;;;;28.25;14.18;;;77.60;1766.40;;;;;;4980712;28;20552;-78
2021/03/22 01:39:30;;;;;;;30.17;13.90;;;77.70;1740.80;;;;;;4982199;28;20019;-78
2021/03/22 01:42:14;;;;;;;27.75;13.40;;;77.50;1792.00;;;;;;4983248;28;20045;-79
2021/03/22 01:45:01;;;;;;;26.75;12.60;;;77.20;1817.60;;;;;;4980323;28;20026;-78
2021/03/22 01:47:31;;;;;;;18.85;10.02;;;77.30;1817.60;;;;;;4980513;28;20117;-78
2021/03/22 01:50:18;;;;;;;24.27;12.95;;;77.20;1843.20;;;;;;4979574;28;20026;-78
2021/03/22 01:52:46;;;;;;;25.30;12.75;;;77.20;1868.80;;;;;;4982660;28;20185;-78
2021/03/22 01:55:14;;;;;;;28.13;13.27;;;77.10;1868.80;;;;;;4996194;28;20103;-78
2021/03/22 01:57:45;;;;;;;21.55;12.18;;;77.20;1894.40;;;;;;4997872;28;20030;-78
2021/03/22 02:00:19;;;;;;;22.92;11.27;;;77.10;1894.40;;;;;;4997157;28;20026;-78
2021/03/22 02:02:46;;;;;;;23.05;12.30;;;77.10;1894.40;;;;;;4998147;28;20054;-78
2021/03/22 02:05:15;;;;;;;19.40;10.80;;;76.90;1894.40;;;;;;4996227;28;20490;-78
2021/03/22 02:07:43;;;;;;;22.33;12.80;;;76.90;1894.40;;;;;;4997801;28;20018;-79
2021/03/22 02:10:09;;;;;;;24.02;12.07;;;52.10;1920.00;;;;;;4997377;28;20041;-78
2021/03/22 02:12:35;;;;;;;27.70;12.98;;;52.10;1920.00;;;;;;4996673;28;20030;-79
2021/03/22 02:15:01;;;;;;;22.20;11.48;;;76.90;1920.00;;;;;;4996801;28;20030;-79
2021/03/22 02:18:00;;;;;;;21.33;11.77;;;76.90;1920.00;;;;;;4995749;28;20041;-81
2021/03/22 02:20:50;;;;;;;21.35;12.02;;;76.90;1920.00;;;;;;4995015;28;20478;-79
2021/03/22 02:23:47;;;;;;;22.95;11.93;;;76.90;1920.00;;;;;;4997099;28;20038;-78
2021/03/22 02:26:35;;;;;;;22.17;12.15;;;76.90;1920.00;;;;;;4996786;28;20030;-79
2021/03/22 02:29:15;;;;;;;22.95;12.07;;;76.80;1920.00;;;;;;4935737;29;20040;-77
2021/03/22 02:32:08;;;;;;;19.77;12.32;;;76.90;1920.00;;;;;;4935837;29;20040;-77
2021/03/22 02:34:48;;;;;;;25.85;12.95;;;77.10;1894.40;;;;;;4919924;29;20074;-77
2021/03/22 02:37:39;;;;;;;19.63;11.85;;;76.90;1920.00;;;;;;4937451;29;20047;-79
2021/03/22 02:40:26;;;;;;;27.63;12.30;;;76.90;1920.00;;;;;;4921362;29;20051;-79
2021/03/22 02:42:52;;;;;;;23.05;12.43;;;77.00;1920.00;;;;;;4938906;29;20060;-80
2021/03/22 02:45:27;;;;;;;29.02;14.65;;;77.20;1894.40;;;;;;4939762;29;20091;-80
2021/03/22 02:47:58;;;;;;;27.80;13.45;;;77.30;1868.80;;;;;;4924736;29;20055;-80
2021/03/22 02:50:31;;;;;;;30.02;13.02;;;77.20;1894.40;;;;;;4924917;29;20038;-80
2021/03/22 02:53:31;;;;;;;29.75;14.75;;;77.00;1920.00;;;;;;4930514;29;20117;-80
2021/03/22 02:56:07;;;;;;;28.35;14.75;;;76.90;1920.00;;;;;;4957961;29;20593;-80
2021/03/22 02:59:01;;;;;;;26.03;15.37;;;77.00;1945.60;;;;;;4943985;29;20219;-79
2021/03/22 03:01:41;;;;;;;27.88;13.98;;;76.90;1945.60;;;;;;4959581;29;20023;-80
2021/03/22 03:04:10;;;;;;;25.42;14.25;;;76.80;1945.60;;;;;;4957719;29;20054;-81
2021/03/22 03:06:45;;;;;;;23.80;13.50;;;76.90;1945.60;;;;;;4971548;28;20030;-79
2021/03/22 03:09:11;;;;;;;24.05;13.25;;;77.10;1945.60;;;;;;5000686;28;20027;-79
2021/03/22 03:11:37;;;;;;;25.00;13.48;;;77.10;1920.00;;;;;;4999047;28;20105;-80
2021/03/22 03:14:03;;;;;;;22.92;13.20;;;77.20;1920.00;;;;;;4981092;28;20109;-79
2021/03/22 03:16:29;;;;;;;28.25;13.43;;;77.20;1920.00;;;;;;4981769;28;20046;-81
2021/03/22 03:18:55;;;;;;;30.25;14.02;;;77.20;1920.00;;;;;;4982824;28;20022;-80
2021/03/22 03:21:21;;;;;;;27.58;13.38;;;77.30;1920.00;;;;;;4982729;28;20517;-79
2021/03/22 03:23:46;;;;;;;;;;;77.20;1920.00;;;;;;5000162;28;20041;-80
2021/03/22 03:26:12;;;;;;;24.40;12.85;;;77.20;1920.00;;;;;;4998013;28;19906;-80
2021/03/22 03:28:38;;;;;;;;;;;77.20;1920.00;;;;;;4983069;28;20394;-80
2021/03/22 03:31:03;;;;;;;21.33;12.38;;;77.20;1920.00;;;;;;5013245;28;19905;-79
2021/03/22 03:33:29;;;;;;;;;;;77.20;1945.60;;;;;;5000833;28;20052;-79
2021/03/22 03:35:55;;;;;;;31.35;15.98;;;77.30;1920.00;;;;;;4981412;28;19914;-80
2021/03/22 03:38:20;;;;;;;;;;;77.40;1920.00;;;;;;4999001;28;20019;-79
2021/03/22 03:40:47;;;;;;;63.30;26.40;;;77.60;1894.40;;;;;;4983357;28;20003;-80
2021/03/22 03:43:15;;;;;;;49.10;22.23;;;77.60;1894.40;;;;;;4980766;28;20030;-80
2021/03/22 03:45:44;;;;;;;71.03;32.55;;;77.70;1920.00;;;;;;4980347;28;20022;-79
2021/03/22 03:48:13;;;;;;;64.13;29.85;;;102.40;1894.40;;;;;;4981559;28;20006;-80
2021/03/22 03:50:40;;;;;;;66.70;30.52;;;102.40;1894.40;;;;;;4982209;28;20490;-79
2021/03/22 03:53:06;;;;;;;60.42;26.05;;;102.50;1868.80;;;;;;4972072;28;20093;-79
2021/03/22 03:55:32;;;;;;;;;;;77.70;1894.40;;;;;;4963272;28;20380;-80
2021/03/22 03:57:58;;;;;;;44.53;19.55;;;77.70;1920.00;;;;;;4962351;28;19909;-80
2021/03/22 04:00:35;;;;;;;39.67;20.17;;;77.70;1894.40;;;;;;4962278;28;20078;-80
2021/03/22 04:03:21;;;;;;;53.65;23.58;;;102.40;1894.40;;;;;;4960472;28;20078;-80
2021/03/22 04:05:55;;;;;;;38.88;19.90;;;102.50;1868.80;;;;;;4962618;28;20065;-80
2021/03/22 04:08:22;;;;;;;29.90;15.55;;;102.60;1868.80;;;;;;4962862;28;20027;-80
2021/03/22 04:10:48;;;;;;;;;;;102.50;1894.40;;;;;;4994985;28;20040;-80
2021/03/22 04:13:14;;;;;;;32.92;16.08;;;103.00;1894.40;;;;;;4961493;28;19898;-78
2021/03/22 04:15:39;;;;;;;;;;;102.60;1920.00;;;;;;4960975;28;20047;-79
2021/03/22 04:18:06;;;;;;;58.95;26.60;;;102.50;1920.00;;;;;;4960900;28;19913;-78
2021/03/22 04:20:31;;;;;;;65.90;31.73;;;102.50;1920.00;;;;;;4959190;28;20536;-79
2021/03/22 04:22:57;;;;;;;63.70;32.20;;;102.50;1920.00;;;;;;4961242;28;20034;-79
2021/03/22 04:25:23;;;;;;;63.70;32.00;;;102.50;1920.00;;;;;;4978078;28;20078;-79
2021/03/22 04:27:49;;;;;;;;;;;102.50;1945.60;;;;;;4961319;28;20033;-79
2021/03/22 04:30:15;;;;;;;152.13;64.95;;;102.50;1920.00;;;;;;4959869;28;19920;-79
2021/03/22 04:32:41;;;;;;;97.22;43.58;;;102.50;1920.00;;;;;;4958680;28;20027;-79
2021/03/22 04:35:07;;;;;;;54.67;27.45;;;102.50;1920.00;;;;;;4960368;28;20026;-80
2021/03/22 04:37:33;;;;;;;37.70;20.73;;;102.50;1894.40;;;;;;4961465;28;20035;-79
2021/03/22 04:39:58;;;;;;;35.10;16.40;;;102.50;1920.00;;;;;;4993795;28;20023;-79
2021/03/22 04:42:24;;;;;;;;;;;102.50;1920.00;;;;;;4961501;28;20062;-79
2021/03/22 04:44:50;;;;;;;29.05;16.00;;;102.50;1920.00;;;;;;4959655;28;19993;-79
2021/03/22 04:47:16;;;;;;;;;;;102.50;1894.40;;;;;;4960394;28;20081;-79
2021/03/22 04:49:41;;;;;;;41.72;18.40;;;102.50;1920.00;;;;;;4960950;28;19957;-79
2021/03/22 04:52:07;;;;;;;;;;;102.40;1920.00;;;;;;4960842;28;20046;-79
2021/03/22 04:54:33;;;;;;;32.75;14.93;;;102.40;1920.00;;;;;;4981189;28;20381;-79
2021/03/22 04:57:26;;;;;;;27.90;14.20;;;102.40;1945.60;;;;;;4983518;28;20128;-79
2021/03/22 04:59:53;;;;;;;34.90;17.40;;;102.40;1945.60;;;;;;4984732;28;20041;-79
2021/03/22 05:02:19;;;;;;;28.65;15.00;;;77.70;1971.20;;;;;;4983626;28;20030;-79
2021/03/22 05:04:45;;;;;;;29.30;14.68;;;77.70;1971.20;;;;;;5016825;28;20022;-79
2021/03/22 05:07:11;;;;;;;26.55;14.73;;;77.70;1971.20;;;;;;5000768;28;20037;-79
2021/03/22 05:09:37;;;;;;;27.38;15.75;;;77.70;1945.60;;;;;;4983272;28;20120;-79
2021/03/22 05:12:03;;;;;;;;;;;102.40;1920.00;;;;;;4984996;28;20058;-78
2021/03/22 05:14:29;;;;;;;25.52;12.85;;;102.50;1920.00;;;;;;4983288;28;19905;-79
2021/03/22 05:16:55;;;;;;;23.42;13.45;;;102.40;1920.00;;;;;;5000502;28;20034;-79
2021/03/22 05:19:20;;;;;;;;;;;102.40;1945.60;;;;;;5002955;28;20022;-80
2021/03/22 05:21:46;;;;;;;21.48;12.98;;;102.40;1971.20;;;;;;4983678;28;20284;-79
2021/03/22 05:24:11;;;;;;;;;;;77.70;1971.20;;;;;;5001157;28;20022;-80
2021/03/22 05:26:37;;;;;;;23.65;13.00;;;77.70;1971.20;;;;;;5000688;28;20328;-79
2021/03/22 05:29:04;;;;;;;;;;;77.50;2022.40;;;;;;4983539;28;20030;-79
2021/03/22 05:31:32;;;;;;;22.63;12.13;;;77.40;2048.00;;;;;;4999018;28;20280;-79
2021/03/22 05:33:58;;;;;;;25.48;13.88;;;77.30;2048.00;;;;;;4999693;28;20414;-79
2021/03/22 05:36:23;;;;;;;29.55;15.05;;;77.40;2073.60;;;;;;5014235;28;20040;-80
2021/03/22 05:38:49;;;;;;;;;;;77.40;2073.60;;;;;;5019992;28;20026;-79
2021/03/22 05:41:20;;;;;;;29.98;14.70;;;77.50;2048.00;;;;;;5019261;28;19959;-79
2021/03/22 05:44:04;;;;;;;31.75;17.00;;;77.60;2048.00;;;;;;5017762;28;20413;-78
2021/03/22 05:46:42;;;;;;;34.88;16.38;;;77.50;2048.00;;;;;;5003397;28;20367;-79
2021/03/22 05:49:46;;;;;;;29.30;16.33;;;77.50;2048.00;;;;;;5003123;28;20385;-80
2021/03/22 05:52:21;;;;;;;29.85;16.52;;;77.70;2022.40;;;;;;5003542;28;20034;-79
2021/03/22 05:54:59;;;;;;;27.45;15.43;;;102.40;2022.40;;;;;;4999851;28;20034;-78
2021/03/22 05:57:30;;;;;;;30.42;16.02;;;77.70;2022.40;;;;;;4999317;28;20041;-79
2021/03/22 06:00:23;;;;;;;31.13;15.73;;;77.70;2022.40;;;;;;4982497;28;20026;-79
2021/03/22 06:03:15;;;;;;;28.70;16.73;;;102.50;1996.80;;;;;;5000969;28;20069;-79
2021/03/22 06:05:49;;;;;;;27.77;15.43;;;77.70;2022.40;;;;;;4982295;28;20037;-79
2021/03/22 06:08:22;;;;;;;31.92;17.80;;;77.70;2048.00;;;;;;5001615;28;20478;-79
2021/03/22 06:10:52;;;;;;;28.25;14.68;;;77.70;2048.00;;;;;;5005116;28;20034;-82
2021/03/22 06:13:28;;;;;;;35.78;18.45;;;77.70;2048.00;;;;;;4997176;28;20030;-82
2021/03/22 06:16:18;;;;;;;30.27;16.70;;;102.40;2048.00;;;;;;4986357;28;20049;-80
2021/03/22 06:18:58;;;;;;;31.35;17.90;;;102.40;2048.00;;;;;;4980123;28;20026;-78
2021/03/22 06:21:27;;;;;;;29.85;16.70;;;102.40;2073.60;;;;;;4979504;28;20034;-77
2021/03/22 06:23:52;;;;;;;26.85;16.20;;;102.50;2073.60;;;;;;4982578;28;20026;-77
2021/03/22 06:26:18;;;;;;;29.95;17.27;;;102.50;2073.60;;;;;;4996435;28;20026;-77
2021/03/22 06:28:45;;;;;;;;;;;102.60;2073.60;;;;;;4997312;28;20475;-78
2021/03/22 06:31:33;;;;;;;28.80;17.73;;;102.60;2073.60;;;;;;4979566;28;19906;-77
2021/03/22 06:34:04;;;;;;;36.72;19.42;;;102.60;2099.20;;;;;;4996066;28;20109;-77
2021/03/22 06:36:33;;;;;;;40.13;21.38;;;102.70;2124.80;;;;;;4997853;28;20044;-77
2021/03/22 06:39:02;;;;;;;27.75;16.00;;;102.70;2124.80;;;;;;4979260;28;20069;-77
2021/03/22 06:41:43;;;;;;;33.58;15.73;;;102.70;2150.40;;;;;;4996712;28;20037;-77
2021/03/22 06:44:15;;;;;;;32.30;18.35;;;102.50;2150.40;;;;;;4997089;28;20030;-77
2021/03/22 06:47:07;;;;;;;104.00;54.85;;;102.70;2176.00;;;;;;4996825;28;20061;-77
2021/03/22 06:49:37;;;;;;;103.07;65.28;;;102.80;2150.40;;;;;;4998287;28;20027;-77
2021/03/22 06:52:16;;;;;;;85.65;57.05;;;102.80;2176.00;;;;;;4979816;28;20113;-77
2021/03/22 06:54:49;;;;;;;69.57;44.83;;;102.80;2176.00;;;;;;5018963;28;20088;-75
2021/03/22 06:57:19;;;;;;;73.32;46.97;;;102.70;2201.60;;;;;;4999681;28;20037;-77
2021/03/22 07:00:04;;;;;;;50.13;33.10;;;102.80;2201.60;;;;;;5005187;28;20026;-80
2021/03/22 07:02:59;;;;;;;34.95;19.88;;;102.70;2201.60;;;;;;5010474;28;20041;-79
2021/03/22 07:05:27;;;;;;;38.25;22.15;;;102.60;2201.60;;;;;;5011162;28;20042;-80
2021/03/22 07:07:54;;;;;;;38.58;24.88;;;102.60;2201.60;;;;;;5001206;28;20112;-78
2021/03/22 07:10:22;;;;;;;35.30;22.95;;;102.70;2201.60;;;;;;5019501;28;20026;-78
2021/03/22 07:13:02;;;;;;;42.08;24.90;;;102.60;2227.20;;;;;;5007668;28;20014;-79
2021/03/22 07:15:32;;;;;;;42.38;27.02;;;102.70;2201.60;;;;;;5028597;28;20037;-80
2021/03/22 07:18:07;;;;;;;42.35;26.77;;;102.70;2227.20;;;;;;5002920;28;20026;-79
2021/03/22 07:20:33;;;;;;;36.05;20.15;;;102.70;2227.20;;;;;;5002094;28;20029;-78
2021/03/22 07:23:35;;;;;;;37.83;22.90;;;102.60;2227.20;;;;;;5003984;28;20064;-79
2021/03/22 07:26:06;;;;;;;37.92;23.33;;;103.10;2227.20;;;;;;4958286;28;20043;-81
2021/03/22 07:28:43;;;;;;;35.78;22.13;;;102.70;2227.20;;;;;;4976099;29;20027;-80
2021/03/22 07:31:36;;;;;;;35.45;18.55;;;102.80;2227.20;;;;;;4971855;29;20036;-80
2021/03/22 07:34:21;;;;;;;31.70;16.52;;;102.80;2227.20;;;;;;4960472;28;20059;-81
2021/03/22 07:36:51;;;;;;;41.13;23.02;;;102.90;2227.20;;;;;;4959770;29;20074;-81
2021/03/22 07:39:23;;;;;;;38.00;22.17;;;102.80;2227.20;;;;;;4976081;29;20027;-83
2021/03/22 07:42:13;;;;;;;36.38;21.17;;;102.80;2227.20;;;;;;4978069;29;20066;-81
2021/03/22 07:45:00;;;;;;;36.45;21.48;;;102.80;2227.20;;;;;;4960432;29;20034;-82
2021/03/22 07:47:35;;;;;;;;;;;102.80;2227.20;;;;;;4962468;28;20011;-82
2021/03/22 07:50:12;;;;;;;41.58;21.60;;;103.00;2227.20;;;;;;4962185;29;19906;-82
2021/03/22 07:53:03;;;;;;;38.03;20.63;;;103.00;2227.20;;;;;;4976709;28;20063;-80
2021/03/22 07:55:53;;;;;;;34.88;19.80;;;103.00;2227.20;;;;;;4978895;29;20063;-82
2021/03/22 07:58:44;;;;;;;36.38;20.40;;;102.90;2227.20;;;;;;4977104;29;20028;-82
2021/03/22 08:01:19;;;;;;;35.15;21.70;;;103.00;2227.20;;;;;;4976155;28;20035;-82
2021/03/22 08:04:10;;;;;;;34.95;20.15;;;102.90;2227.20;;;;;;4990919;28;20035;-81
2021/03/22 08:07:25;;;;;;;35.75;20.30;;;102.80;2227.20;;;;;;5004094;28;20030;-80
2021/03/22 08:10:05;;;;;;;34.55;22.23;;;102.80;2227.20;;;;;;4919113;29;20032;-80
2021/03/22 08:12:40;;;;;;;33.47;20.70;;;102.80;2227.20;;;;;;4905945;29;20137;-80
2021/03/22 08:15:43;;;;;;;30.50;18.70;;;102.80;2227.20;;;;;;4919386;29;20048;-78
2021/03/22 08:18:17;;;;;;;37.60;23.17;;;102.90;2227.20;;;;;;4900567;29;20457;-78
2021/03/22 08:21:06;;;;;;;35.00;19.10;;;102.90;2227.20;;;;;;4915974;29;20040;-78
2021/03/22 08:23:54;;;;;;;33.67;18.13;;;103.00;2227.20;;;;;;4917673;29;20036;-78
2021/03/22 08:26:30;;;;;;;38.88;24.83;;;103.10;2227.20;;;;;;4902228;29;20035;-78
2021/03/22 08:29:04;;;;;;;49.33;26.65;;;103.20;2227.20;;;;;;4915799;29;20032;-80
2021/03/22 08:31:46;;;;;;;39.85;23.42;;;103.20;2227.20;;;;;;4911085;29;20033;-79
2021/03/22 08:34:46;;;;;;;31.63;20.10;;;103.10;2227.20;;;;;;4882729;29;20068;-78
2021/03/22 08:37:27;;;;;;;38.70;21.10;;;103.00;2227.20;;;;;;4856875;29;20049;-79
2021/03/22 08:40:00;;;;;;;47.30;28.30;;;103.20;2227.20;;;;;;4827974;29;20038;-78
2021/03/22 08:42:33;;;;;;;41.03;25.23;;;103.30;2227.20;;;;;;4852873;29;20398;-79
2021/03/22 08:45:23;;;;;;;57.85;31.67;;;103.20;2227.20;;;;;;4845670;29;20499;-79
2021/03/22 08:47:53;;;;;;;47.67;25.67;;;103.20;2227.20;;;;;;4936012;29;20555;-79
2021/03/22 08:50:24;;;;;;;38.38;21.95;;;103.30;2227.20;;;;;;4934446;29;20050;-78
2021/03/22 08:53:01;;;;;;;44.60;24.77;;;128.00;2252.80;;;;;;4939585;29;20075;-78
2021/03/22 08:55:54;;;;;;;54.17;31.70;;;128.00;2252.80;;;;;;4957504;28;20035;-77
2021/03/22 08:58:33;;;;;;;45.45;26.63;;;128.20;2252.80;;;;;;4957062;28;20031;-78
2021/03/22 09:01:36;;;;;;;62.35;33.65;;;128.40;2252.80;;;;;;4968141;28;20039;-78
2021/03/22 09:04:20;;;;;;;66.07;37.63;;;128.20;2252.80;;;;;;4918989;29;20040;-79
2021/03/22 09:07:21;;;;;;;82.30;46.05;;;128.10;2252.80;;;;;;4918781;29;20092;-77
2021/03/22 09:09:48;;;;;;;73.15;39.42;;;128.20;2252.80;;;;;;4916222;29;20064;-78
2021/03/22 09:12:41;;;;;;;48.95;29.25;;;128.30;2252.80;;;;;;4927599;29;20031;-79
2021/03/22 09:15:42;;;;;;;54.75;29.23;;;128.10;2252.80;;;;;;4956128;29;20020;-79
2021/03/22 09:18:13;;;;;;;71.07;34.80;;;128.20;2252.80;;;;;;4937024;29;20047;-77
2021/03/22 09:20:47;;;;;;;49.45;28.08;;;128.40;2252.80;;;;;;4927326;29;20035;-77
2021/03/22 09:23:31;;;;;;;63.47;32.30;;;128.30;2252.80;;;;;;4940844;29;20475;-80
2021/03/22 09:26:02;;;;;;;52.78;28.38;;;128.00;2252.80;;;;;;4951045;29;20111;-78
2021/03/22 09:28:27;;;;;;;57.78;32.38;;;128.00;2252.80;;;;;;4939081;29;20051;-78
2021/03/22 09:31:24;;;;;;;59.45;33.47;;;128.10;2252.80;;;;;;4941264;29;20118;-78
2021/03/22 09:34:20;;;;;;;37.42;21.50;;;103.30;2227.20;;;;;;4956552;29;20047;-78
2021/03/22 09:36:48;;;;;;;52.30;30.65;;;128.40;2252.80;;;;;;4939263;29;20039;-78
2021/03/22 09:39:18;;;;;;;47.40;27.60;;;128.40;2252.80;;;;;;4955730;29;20600;-79
2021/03/22 09:41:59;;;;;;;44.97;26.92;;;128.40;2252.80;;;;;;4988865;28;20034;-78
2021/03/22 09:44:35;;;;;;;50.35;28.77;;;128.10;2252.80;;;;;;4999930;28;20548;-78
2021/03/22 09:47:19;;;;;;;54.72;30.23;;;128.20;2252.80;;;;;;4998570;28;20058;-78
2021/03/22 09:50:11;;;;;;;45.70;27.40;;;128.30;2252.80;;;;;;5000099;28;20045;-78
2021/03/22 09:53:08;;;;;;;46.65;28.17;;;103.30;2227.20;;;;;;5003506;28;20038;-78
2021/03/22 09:55:48;;;;;;;61.67;31.17;;;103.20;2227.20;;;;;;4974198;28;20038;-77
2021/03/22 09:58:25;;;;;;;38.17;23.40;;;103.10;2227.20;;;;;;4984760;28;20035;-78
2021/03/22 10:01:03;;;;;;;42.30;24.58;;;103.10;2227.20;;;;;;4979118;28;20038;-78
2021/03/22 10:03:34;;;;;;;40.72;24.50;;;103.30;2227.20;;;;;;4996236;28;20061;-78
2021/03/22 10:06:04;;;;;;;38.88;23.58;;;103.30;2227.20;;;;;;4977858;28;20037;-78
2021/03/22 10:08:36;;;;;;;41.15;24.63;;;103.10;2227.20;;;;;;4997825;28;20089;-79
2021/03/22 10:11:24;;;;;;;51.67;29.77;;;103.30;2227.20;;;;;;4982560;28;20022;-78
2021/03/22 10:13:51;;;;;;;46.15;28.38;;;103.30;2227.20;;;;;;4991091;28;20498;-78
2021/03/22 10:16:22;;;;;;;50.35;27.95;;;103.30;2227.20;;;;;;4978486;28;20524;-78
2021/03/22 10:18:54;;;;;;;46.10;25.73;;;103.30;2227.20;;;;;;4981462;28;20430;-78
2021/03/22 10:21:26;;;;;;;50.47;29.67;;;103.10;2227.20;;;;;;4978322;28;20026;-78
2021/03/22 10:24:00;;;;;;;46.33;28.90;;;128.00;2252.80;;;;;;4978677;28;20084;-78
2021/03/22 10:26:44;;;;;;;51.60;26.17;;;103.30;2227.20;;;;;;4979686;28;20041;-77
2021/03/22 10:29:20;;;;;;;47.00;26.05;;;128.00;2252.80;;;;;;4995548;28;20494;-77
2021/03/22 10:32:00;;;;;;;40.45;22.17;;;128.10;2252.80;;;;;;4993684;28;20033;-77
2021/03/22 10:35:06;;;;;;;41.35;24.25;;;128.20;2252.80;;;;;;5007456;28;20037;-78
2021/03/22 10:37:43;;;;;;;49.25;26.25;;;128.10;2252.80;;;;;;4983942;28;20039;-78
2021/03/22 10:43:05;;;;;;;41.17;21.65;;;103.20;2227.20;;;;;;4988850;28;19965;-76
2021/03/22 10:45:39;;;;;;;43.72;24.73;;;103.10;2227.20;;;;;;4984228;28;20018;-78
2021/03/22 10:48:22;;;;;;;36.83;22.73;;;103.10;2227.20;;;;;;4993758;28;20041;-77
2021/03/22 10:51:29;;;;;;;39.15;24.08;;;103.20;2227.20;;;;;;4995146;28;20030;-78
2021/03/22 10:53:57;;;;;;;34.22;21.08;;;103.20;2227.20;;;;;;4995222;28;20065;-78
2021/03/22 10:56:30;;;;;;;37.28;22.48;;;103.20;2227.20;;;;;;4994330;28;20048;-77
2021/03/22 10:59:02;;;;;;;38.92;23.70;;;103.20;2227.20;;;;;;4995125;28;20027;-77
2021/03/22 11:01:34;;;;;;;42.88;24.05;;;103.30;2227.20;;;;;;4993383;28;20065;-77
2021/03/22 11:04:11;;;;;;;41.53;23.70;;;103.30;2227.20;;;;;;4997682;28;20088;-78
2021/03/22 11:06:41;;;;;;;42.42;23.30;;;103.20;2227.20;;;;;;4995435;28;20045;-78
2021/03/22 11:09:19;;;;;;;41.95;22.73;;;103.20;2227.20;;;;;;5005548;28;20053;-80
2021/03/22 11:11:45;;;;;;;44.00;23.27;;;103.20;2227.20;;;;;;5020466;28;20026;-79
2021/03/22 11:14:39;;;;;;;48.70;29.73;;;128.00;2252.80;;;;;;5000310;28;20069;-78
2021/03/22 11:17:16;;;;;;;69.28;37.65;;;128.00;2252.80;;;;;;4983500;28;20062;-79
2021/03/22 11:19:48;;;;;;;44.22;25.15;;;128.10;2252.80;;;;;;4984196;28;20027;-80
2021/03/22 11:22:26;;;;;;;42.38;24.15;;;103.30;2227.20;;;;;;4982666;28;20023;-78
2021/03/22 11:28:21;;;;;;;37.85;23.13;;;103.30;2227.20;;;;;;4980787;28;20022;-81
2021/03/22 11:30:49;;;;;;;47.50;26.38;;;128.00;2252.80;;;;;;4990302;28;20019;-78
2021/03/22 11:33:28;;;;;;;44.55;26.77;;;128.40;2252.80;;;;;;4983922;28;20043;-78
2021/03/22 11:36:29;;;;;;;49.55;26.38;;;128.50;2252.80;;;;;;4998216;28;20031;-78
2021/03/22 11:39:10;;;;;;;46.45;24.90;;;128.50;2252.80;;;;;;4999133;28;20035;-78
2021/03/22 11:41:45;;;;;;;46.42;28.42;;;128.40;2252.80;;;;;;4970677;28;20483;-78
2021/03/22 11:44:33;;;;;;;44.63;25.60;;;128.40;2252.80;;;;;;4965153;28;20062;-77
2021/03/22 11:47:43;;;;;;;38.00;23.67;;;128.30;2252.80;;;;;;4974948;28;20027;-77
2021/03/22 11:53:55;;;;;;;43.22;25.15;;;128.40;2252.80;;;;;;5020013;28;20065;-77
2021/03/22 11:56:28;;;;;;;35.30;19.95;;;128.30;2252.80;;;;;;4966702;28;20055;-77
2021/03/22 11:59:23;;;;;;;33.95;20.73;;;128.30;2252.80;;;;;;4969716;28;20043;-78
2021/03/22 12:02:04;;;;;;;38.33;22.20;;;128.20;2252.80;;;;;;4946869;28;20091;-77
2021/03/22 12:04:34;;;;;;;40.78;24.40;;;128.30;2252.80;;;;;;4966408;28;20035;-77
2021/03/22 12:07:07;;;;;;;37.30;21.30;;;128.20;2252.80;;;;;;4942960;29;20028;-78
2021/03/22 12:09:34;;;;;;;41.45;24.83;;;128.20;2252.80;;;;;;4963170;29;20066;-77
2021/03/22 12:12:08;;;;;;;39.88;23.75;;;128.40;2252.80;;;;;;4963614;29;20100;-78
2021/03/22 12:14:34;;;;;;;41.30;22.83;;;128.40;2252.80;;;;;;4954910;29;20097;-77
2021/03/22 12:17:09;;;;;;;36.95;22.17;;;128.30;2252.80;;;;;;4956128;29;20059;-78
2021/03/22 12:19:41;;;;;;;35.67;21.98;;;128.40;2252.80;;;;;;4952963;29;20066;-77
2021/03/22 12:22:14;;;;;;;34.83;21.25;;;128.50;2252.80;;;;;;4941156;29;20019;-79
2021/03/22 12:24:39;;;;;;;34.90;20.90;;;128.40;2252.80;;;;;;4939615;29;20042;-77
2021/03/22 12:27:17;;;;;;;35.25;21.30;;;128.40;2252.80;;;;;;4936433;29;20023;-78
2021/03/22 12:29:43;;;;;;;38.38;22.70;;;128.40;2252.80;;;;;;4943852;29;20031;-78
2021/03/22 12:32:28;;;;;;;36.20;21.85;;;128.80;2252.80;;;;;;4958438;29;20034;-78
2021/03/22 12:34:54;;;;;;;31.73;18.30;;;128.30;2252.80;;;;;;4951942;29;20031;-78
2021/03/22 12:37:34;;;;;;;34.13;21.20;;;128.30;2252.80;;;;;;4939397;29;20023;-78
2021/03/22 12:40:01;;;;;;;31.02;19.40;;;128.60;2252.80;;;;;;4948267;28;20391;-78
2021/03/22 12:42:29;;;;;;;33.08;18.92;;;128.50;2252.80;;;;;;4960198;28;20041;-78
2021/03/22 12:44:55;;;;;;;30.67;19.10;;;128.50;2252.80;;;;;;4957258;28;20059;-78
2021/03/22 12:47:28;;;;;;;40.28;21.70;;;128.50;2252.80;;;;;;4972894;28;20536;-77
2021/03/22 12:49:54;;;;;;;34.67;20.88;;;128.50;2252.80;;;;;;4978291;28;20030;-77
2021/03/22 12:52:20;;;;;;;35.90;20.55;;;128.40;2252.80;;;;;;4984062;28;20031;-77
2021/03/22 12:54:45;;;;;;;;;;;128.40;2252.80;;;;;;4995672;28;20034;-77